Time;durP1;ratioP1;P1;durP2;ratioP2;P2;SDS_P1;SDS_P2;PMS_P1;PMS_P2;Temp;Humidity;BMP_temperature;BMP_pressure;BME280_temperature;BME280_humidity;BME280_pressure;Samples;Min_cycle;Max_cycle;Signal;HPM_P1;HPM_P2
2021/06/20 00:00:55;;;;;;;;;6.00;6.00;;;;;24.03;62.48;100355.63;5079188;27;47546;-41
2021/06/20 00:03:21;;;;;;;;;5.50;5.50;;;;;24.00;62.43;100355.84;5078668;27;45377;-41
2021/06/20 00:05:55;;;;;;;;;5.75;5.75;;;;;23.97;62.15;100358.81;5093455;27;45443;-41
2021/06/20 00:08:21;;;;;;;;;5.75;5.75;;;;;23.94;62.37;100357.22;5086023;27;45428;-41
2021/06/20 00:10:49;;;;;;;;;7.25;6.00;;;;;23.92;62.62;100348.38;5093526;27;45717;-41
2021/06/20 00:13:15;;;;;;;;;5.33;5.33;;;;;23.91;62.34;100357.50;5099876;27;45628;-41
2021/06/20 00:15:41;;;;;;;;;6.75;6.75;;;;;23.92;62.26;100352.94;5083483;27;45538;-41
2021/06/20 00:18:07;;;;;;;;;6.75;6.75;;;;;23.90;62.44;100346.78;5078600;27;46031;-41
2021/06/20 00:20:39;;;;;;;;;6.33;6.33;;;;;23.91;62.47;100351.22;5092132;27;47118;-40
2021/06/20 00:23:05;;;;;;;;;4.00;4.00;;;;;23.90;62.06;100357.63;5086502;27;45543;-41
2021/06/20 00:25:31;;;;;;;;;5.75;5.75;;;;;23.90;62.14;100349.50;5086991;27;45506;-41
2021/06/20 00:27:57;;;;;;;;;5.67;5.67;;;;;23.92;62.39;100352.94;5088681;27;45662;-39
2021/06/20 00:30:25;;;;;;;;;5.33;5.33;;;;;23.93;62.03;100354.66;5092921;27;47575;-41
2021/06/20 00:32:52;;;;;;;;;5.00;4.67;;;;;23.90;61.79;100350.34;5089377;27;45380;-40
2021/06/20 00:35:19;;;;;;;;;7.00;7.00;;;;;23.87;61.71;100344.31;5085584;27;45351;-40
2021/06/20 00:37:45;;;;;;;;;6.67;6.67;;;;;23.84;61.82;100341.84;5096115;27;45701;-40
2021/06/20 00:40:12;;;;;;;;;6.00;5.00;;;;;23.80;61.88;100335.84;5086719;27;47192;-40
2021/06/20 00:42:38;;;;;;;;;5.00;5.00;;;;;23.78;61.46;100335.09;5081004;27;45693;-40
2021/06/20 00:45:05;;;;;;;;;7.00;7.00;;;;;23.73;61.29;100340.03;5086084;27;45462;-40
2021/06/20 00:47:31;;;;;;;;;6.33;6.00;;;;;23.67;60.73;100338.69;5098372;27;45515;-41
2021/06/20 00:49:57;;;;;;;;;3.33;3.33;;;;;23.63;60.50;100337.25;5093468;27;45766;-40
2021/06/20 00:52:23;;;;;;;;;3.67;3.33;;;;;23.60;59.80;100339.31;5091673;27;45563;-40
2021/06/20 00:54:49;;;;;;;;;4.00;3.00;;;;;23.55;59.61;100349.66;5091300;27;45767;-40
2021/06/20 00:57:21;;;;;;;;;4.00;3.67;;;;;23.48;59.35;100342.00;5094873;27;45541;-41
2021/06/20 00:59:48;;;;;;;;;3.00;3.00;;;;;23.44;59.61;100353.22;5093341;27;47126;-40
2021/06/20 01:02:19;;;;;;;;;3.33;2.33;;;;;23.40;59.07;100343.63;5086409;27;45420;-40
2021/06/20 01:04:48;;;;;;;;;3.33;3.33;;;;;23.36;58.88;100352.97;5091577;27;45414;-40
2021/06/20 01:07:15;;;;;;;;;2.00;2.00;;;;;23.30;58.44;100351.63;5081929;27;45568;-40
2021/06/20 01:09:41;;;;;;;;;4.00;4.00;;;;;23.25;58.54;100348.44;5083655;27;45316;-39
2021/06/20 01:12:07;;;;;;;;;2.00;2.00;;;;;23.22;58.21;100342.38;5081863;27;45522;-40
2021/06/20 01:14:33;;;;;;;;;2.00;2.00;;;;;23.18;58.53;100345.34;5094753;27;45615;-39
2021/06/20 01:16:59;;;;;;;;;1.67;1.67;;;;;23.16;58.38;100344.63;5095801;27;45676;-41
2021/06/20 01:19:25;;;;;;;;;2.67;2.67;;;;;23.16;58.17;100349.16;5082502;27;45992;-40
2021/06/20 01:21:50;;;;;;;;;2.00;2.00;;;;;23.13;58.99;100344.88;5095522;27;45628;-40
2021/06/20 01:24:16;;;;;;;;;2.67;2.67;;;;;23.12;58.75;100345.84;5088413;27;45386;-40
2021/06/20 01:26:41;;;;;;;;;2.67;2.00;;;;;23.11;58.37;100344.09;5095204;27;45759;-40
2021/06/20 01:29:09;;;;;;;;;2.67;2.67;;;;;23.11;58.91;100348.66;5091420;27;47328;-41
2021/06/20 01:31:36;;;;;;;;;3.00;3.00;;;;;23.12;58.63;100351.28;5096721;27;45270;-40
2021/06/20 01:34:03;;;;;;;;;2.00;2.00;;;;;23.12;58.22;100359.38;5084660;27;45560;-40
2021/06/20 01:36:30;;;;;;;;;2.00;2.00;;;;;23.11;58.35;100359.47;5095681;27;45393;-40
2021/06/20 01:38:55;;;;;;;;;3.00;3.00;;;;;23.12;58.39;100356.69;5088124;27;48388;-41
2021/06/20 01:41:21;;;;;;;;;2.00;2.00;;;;;23.11;58.45;100345.94;5093307;27;45589;-40
2021/06/20 01:43:47;;;;;;;;;3.00;3.00;;;;;23.08;58.26;100349.78;5078688;27;45477;-40
2021/06/20 01:46:12;;;;;;;;;3.00;3.00;;;;;23.05;58.32;100351.88;5088204;27;45554;-41
2021/06/20 01:48:38;;;;;;;;;3.00;3.00;;;;;23.03;58.62;100352.00;5092078;27;48500;-40
2021/06/20 01:51:07;;;;;;;;;3.25;3.25;;;;;23.01;58.73;100345.00;5086976;27;45318;-40
2021/06/20 01:53:33;;;;;;;;;3.00;3.00;;;;;23.01;58.90;100345.84;5086417;27;45291;-39
2021/06/20 01:55:59;;;;;;;;;3.00;3.00;;;;;23.02;58.86;100344.00;5080066;27;45787;-40
2021/06/20 01:58:25;;;;;;;;;2.33;2.00;;;;;23.01;59.09;100335.03;5077076;27;48513;-40
2021/06/20 02:00:52;;;;;;;;;3.00;3.00;;;;;23.02;58.89;100330.47;5083005;27;45358;-40
2021/06/20 02:03:24;;;;;;;;;3.00;3.00;;;;;23.02;58.89;100335.88;5092497;27;45508;-40
2021/06/20 02:05:51;;;;;;;;;3.67;3.67;;;;;23.01;58.51;100339.56;5089861;27;45375;-40
2021/06/20 02:08:18;;;;;;;;;4.33;3.00;;;;;23.00;59.01;100332.44;5087668;27;46937;-40
2021/06/20 02:10:50;;;;;;;;;4.00;4.00;;;;;22.98;58.84;100319.00;5090178;27;45945;-40
2021/06/20 02:13:18;;;;;;;;;4.00;4.00;;;;;22.97;59.12;100324.53;5091731;27;45825;-41
2021/06/20 02:15:43;;;;;;;;;3.00;2.00;;;;;22.95;58.80;100329.22;5079200;27;45414;-40
2021/06/20 02:18:09;;;;;;;;;3.00;3.00;;;;;22.94;59.09;100319.38;5085212;27;47096;-40
2021/06/20 02:20:35;;;;;;;;;4.67;4.67;;;;;22.95;59.43;100329.22;5085867;27;45581;-40
2021/06/20 02:23:00;;;;;;;;;4.33;4.00;;;;;22.93;59.20;100336.59;5089480;27;45505;-40
2021/06/20 02:25:26;;;;;;;;;5.50;4.25;;;;;22.91;59.58;100336.72;5091919;27;47374;-40
2021/06/20 02:27:53;;;;;;;;;3.75;3.75;;;;;22.91;59.61;100344.84;5085508;27;47918;-40
2021/06/20 02:30:20;;;;;;;;;4.25;4.25;;;;;22.88;59.36;100339.69;5082238;27;45814;-40
2021/06/20 02:32:46;;;;;;;;;3.75;3.75;;;;;22.86;59.68;100353.31;5086745;27;45429;-40
2021/06/20 02:35:14;;;;;;;;;3.67;3.67;;;;;22.87;59.71;100351.50;5087842;27;45515;-40
2021/06/20 02:37:40;;;;;;;;;4.67;4.00;;;;;22.88;59.63;100355.91;5095097;27;47530;-40
2021/06/20 02:40:08;;;;;;;;;6.00;6.00;;;;;22.89;59.81;100350.38;5093426;27;45435;-40
2021/06/20 02:42:34;;;;;;;;;6.00;5.00;;;;;22.91;59.87;100344.84;5078066;27;45440;-40
2021/06/20 02:44:59;;;;;;;;;6.33;6.00;;;;;22.93;60.12;100355.53;5094587;27;45459;-41
2021/06/20 02:47:25;;;;;;;;;4.00;4.00;;;;;22.95;59.80;100359.00;5082797;27;48135;-48
2021/06/20 02:49:51;;;;;;;;;4.67;4.33;;;;;22.95;59.74;100356.28;5079658;27;45393;-40
2021/06/20 02:52:17;;;;;;;;;8.00;8.00;;;;;22.95;59.68;100361.69;5086031;27;45310;-40
2021/06/20 02:54:49;;;;;;;;;5.33;5.33;;;;;22.96;60.16;100358.00;5095433;27;45497;-40
2021/06/20 02:57:23;;;;;;;;;5.00;5.00;;;;;22.96;60.11;100363.41;5096672;27;47533;-40
2021/06/20 02:59:51;;;;;;;;;4.67;4.00;;;;;22.93;59.70;100367.22;5080196;27;45394;-40
2021/06/20 03:02:17;;;;;;;;;5.00;3.00;;;;;22.89;59.33;100353.09;5077875;27;45735;-40
2021/06/20 03:04:43;;;;;;;;;4.00;4.00;;;;;22.87;59.65;100365.88;5093790;27;45505;-40
2021/06/20 03:07:09;;;;;;;;;4.67;4.00;;;;;22.84;59.22;100366.09;5086408;27;47373;-40
2021/06/20 03:09:37;;;;;;;;;6.00;5.00;;;;;22.81;59.31;100371.72;5079077;27;45632;-40
2021/06/20 03:12:03;;;;;;;;;5.00;4.00;;;;;22.79;59.78;100367.41;5081346;27;45423;-40
2021/06/20 03:14:29;;;;;;;;;4.33;4.33;;;;;22.76;59.09;100360.41;5080960;27;45509;-41
2021/06/20 03:16:55;;;;;;;;;2.00;2.00;;;;;22.71;59.12;100367.16;5092633;27;46323;-40
2021/06/20 03:19:20;;;;;;;;;3.67;2.00;;;;;22.66;59.15;100374.75;5099740;27;45709;-40
2021/06/20 03:21:46;;;;;;;;;3.67;3.67;;;;;22.64;59.08;100371.31;5082984;27;45559;-40
2021/06/20 03:24:11;;;;;;;;;3.67;3.67;;;;;22.59;58.77;100358.13;5084865;27;45435;-40
2021/06/20 03:26:37;;;;;;;;;5.00;3.33;;;;;22.56;58.59;100366.50;5080241;27;46780;-40
2021/06/20 03:29:03;;;;;;;;;2.00;2.00;;;;;22.53;58.77;100355.91;5080583;27;45796;-40
2021/06/20 03:31:28;;;;;;;;;3.00;3.00;;;;;22.50;58.75;100356.16;5087072;27;45294;-40
2021/06/20 03:33:57;;;;;;;;;2.67;2.33;;;;;22.46;58.46;100357.34;5097317;27;45357;-39
2021/06/20 03:36:23;;;;;;;;;2.00;2.00;;;;;22.42;58.55;100345.94;5095680;27;47436;-40
2021/06/20 03:38:48;;;;;;;;;1.00;1.00;;;;;22.40;58.42;100356.00;5091195;27;45374;-40
2021/06/20 03:41:14;;;;;;;;;1.00;1.00;;;;;22.38;58.44;100365.22;5080730;27;45496;-40
2021/06/20 03:43:41;;;;;;;;;2.00;2.00;;;;;22.34;57.87;100367.25;5098108;27;45461;-40
2021/06/20 03:46:07;;;;;;;;;2.00;2.00;;;;;22.32;58.54;100353.00;5097266;27;47452;-40
2021/06/20 03:48:32;;;;;;;;;0.33;0.33;;;;;22.30;57.92;100352.28;5091083;27;45285;-40
2021/06/20 03:50:58;;;;;;;;;2.00;2.00;;;;;22.26;57.46;100354.34;5084091;27;45322;-40
2021/06/20 03:53:23;;;;;;;;;0.33;0.33;;;;;22.24;57.73;100350.91;5088192;27;45536;-40
2021/06/20 03:55:49;;;;;;;;;2.00;2.00;;;;;22.22;57.69;100355.53;5080500;27;48265;-40
2021/06/20 03:58:14;;;;;;;;;1.33;1.33;;;;;22.21;57.85;100355.66;5110509;27;45356;-40
2021/06/20 04:00:40;;;;;;;;;3.33;3.33;;;;;22.18;57.38;100359.47;5092502;27;45516;-49
2021/06/20 04:03:06;;;;;;;;;1.33;1.33;;;;;22.16;57.86;100352.47;5091321;27;45468;-40
2021/06/20 04:05:32;;;;;;;;;1.00;1.00;;;;;22.13;57.52;100358.09;5106536;27;45655;-40
2021/06/20 04:07:58;;;;;;;;;2.67;2.00;;;;;22.12;57.66;100365.34;5088158;27;45609;-40
2021/06/20 04:10:24;;;;;;;;;3.00;3.00;;;;;22.09;57.63;100362.84;5094300;27;45815;-40
2021/06/20 04:12:49;;;;;;;;;3.33;2.67;;;;;22.07;57.97;100361.25;5091349;27;45461;-40
2021/06/20 04:15:15;;;;;;;;;1.00;1.00;;;;;22.04;57.78;100365.03;5078927;27;48212;-40
2021/06/20 04:17:40;;;;;;;;;1.67;1.67;;;;;22.01;57.17;100376.06;5088093;27;45664;-40
2021/06/20 04:20:07;;;;;;;;;2.00;2.00;;;;;22.00;57.49;100379.75;5086911;27;45370;-40
2021/06/20 04:22:34;;;;;;;;;1.00;1.00;;;;;21.99;57.54;100386.13;5081886;27;45609;-40
2021/06/20 04:25:00;;;;;;;;;1.00;1.00;;;;;21.96;57.26;100384.50;5100296;27;48236;-40
2021/06/20 04:27:25;;;;;;;;;0.33;0.33;;;;;21.95;57.59;100393.56;5096458;27;45522;-41
2021/06/20 04:29:51;;;;;;;;;3.00;3.00;;;;;21.97;57.61;100390.75;5096696;27;45457;-40
2021/06/20 04:32:17;;;;;;;;;2.00;2.00;;;;;21.96;57.44;100392.59;5083052;27;45416;-41
2021/06/20 04:34:42;;;;;;;;;2.67;2.67;;;;;21.96;57.03;100398.00;5089902;27;48187;-40
2021/06/20 04:37:08;;;;;;;;;1.00;1.00;;;;;21.97;57.12;100405.13;5090977;27;45307;-40
2021/06/20 04:39:33;;;;;;;;;2.00;2.00;;;;;21.97;57.29;100390.75;5095919;27;45271;-40
2021/06/20 04:42:00;;;;;;;;;2.67;2.67;;;;;21.97;56.90;100396.16;5090836;27;45449;-43
2021/06/20 04:44:45;;;;;;;;;2.00;2.00;;;;;21.96;57.48;100387.19;5098783;27;48424;-40
2021/06/20 04:47:16;;;;;;;;;1.33;1.33;;;;;21.97;56.95;100393.47;5081382;27;45389;-40
2021/06/20 04:49:42;;;;;;;;;1.00;1.00;;;;;21.98;56.87;100376.31;5086736;27;45662;-41
2021/06/20 04:52:09;;;;;;;;;1.33;1.33;;;;;22.00;56.59;100363.53;5085229;27;45357;-40
2021/06/20 04:54:36;;;;;;;;;1.33;1.00;;;;;21.99;56.86;100362.66;5080224;27;47319;-40
2021/06/20 04:57:08;;;;;;;;;2.67;1.33;;;;;22.00;56.69;100377.03;5090788;27;45547;-40
2021/06/20 04:59:33;;;;;;;;;3.00;3.00;;;;;22.01;57.29;100374.22;5096434;27;45295;-40
2021/06/20 05:01:59;;;;;;;;;2.00;1.00;;;;;22.01;57.26;100376.94;5091095;27;45514;-40
2021/06/20 05:04:24;;;;;;;;;2.00;1.00;;;;;22.03;57.21;100387.63;5098165;27;48505;-41
2021/06/20 05:06:51;;;;;;;;;2.00;1.00;;;;;22.01;57.06;100382.34;5094005;27;45284;-41
2021/06/20 05:09:16;;;;;;;;;4.00;3.00;;;;;22.01;56.76;100379.63;5091131;27;45397;-43
2021/06/20 05:11:42;;;;;;;;;2.00;2.00;;;;;22.01;56.79;100376.94;5093676;27;45656;-40
2021/06/20 05:14:07;;;;;;;;;2.33;2.33;;;;;22.02;56.36;100364.28;5078573;27;47990;-40
2021/06/20 05:16:33;;;;;;;;;3.00;1.67;;;;;22.01;56.48;100370.66;5086167;27;45811;-41
2021/06/20 05:18:58;;;;;;;;;3.33;2.00;;;;;22.01;56.76;100379.63;5084894;27;45408;-41
2021/06/20 05:21:23;;;;;;;;;2.67;2.67;;;;;21.99;56.78;100373.47;5089086;27;45352;-39
2021/06/20 05:23:49;;;;;;;;;3.33;2.33;;;;;22.00;56.44;100385.16;5081651;27;48634;-42
2021/06/20 05:26:14;;;;;;;;;2.33;2.00;;;;;22.01;56.52;100385.03;5090218;27;45286;-40
2021/06/20 05:28:40;;;;;;;;;4.67;3.00;;;;;22.04;56.77;100387.50;5085882;27;45357;-42
2021/06/20 05:31:06;;;;;;;;;3.00;2.00;;;;;22.06;56.40;100391.94;5079036;27;45834;-41
2021/06/20 05:33:31;;;;;;;;;2.00;2.00;;;;;22.08;57.08;100382.75;5090132;27;47340;-41
2021/06/20 05:35:57;;;;;;;;;1.00;1.00;;;;;22.14;56.55;100384.16;5081132;27;45532;-41
2021/06/20 05:38:22;;;;;;;;;2.67;2.67;;;;;22.18;56.56;100377.53;5092311;27;45294;-41
2021/06/20 05:40:48;;;;;;;;;2.00;2.00;;;;;22.21;56.87;100377.28;5082498;27;45459;-41
2021/06/20 05:43:13;;;;;;;;;5.00;4.00;;;;;22.25;57.17;100385.06;5091244;27;47202;-41
2021/06/20 05:45:39;;;;;;;;;2.00;2.00;;;;;22.30;56.71;100387.41;5082956;27;46068;-41
2021/06/20 05:48:05;;;;;;;;;2.33;2.33;;;;;22.33;56.50;100382.63;5093684;27;45401;-41
2021/06/20 05:50:31;;;;;;;;;3.00;3.00;;;;;22.37;56.39;100394.09;5091036;27;45592;-41
2021/06/20 05:52:57;;;;;;;;;3.33;2.67;;;;;22.39;56.14;100375.03;5087680;27;47445;-41
2021/06/20 05:55:22;;;;;;;;;4.00;4.00;;;;;22.41;55.53;100389.31;5091513;27;45667;-41
2021/06/20 05:57:48;;;;;;;;;3.00;3.00;;;;;22.42;55.85;100385.63;5087724;27;46502;-41
2021/06/20 06:00:14;;;;;;;;;3.67;2.33;;;;;22.39;55.39;100397.53;5106953;27;45341;-41
2021/06/20 06:02:40;;;;;;;;;3.33;3.00;;;;;22.37;55.42;100402.22;5090713;27;47267;-40
2021/06/20 06:05:07;;;;;;;;;3.00;3.00;;;;;22.35;55.73;100390.63;5082355;27;45541;-40
2021/06/20 06:07:32;;;;;;;;;3.00;3.00;;;;;22.34;55.77;100391.59;5086301;27;45436;-39
2021/06/20 06:09:59;;;;;;;;;2.33;2.33;;;;;22.35;55.51;100387.06;5097283;27;45374;-41
2021/06/20 06:12:24;;;;;;;;;2.33;2.33;;;;;22.34;55.22;100388.91;5093012;27;47340;-40
2021/06/20 06:14:54;;;;;;;;;2.00;2.00;;;;;22.29;55.51;100400.06;5090184;27;46009;-40
2021/06/20 06:17:21;;;;;;;;;3.67;3.67;;;;;22.28;55.50;100400.19;5078510;27;45542;-40
2021/06/20 06:19:48;;;;;;;;;3.67;3.33;;;;;22.26;55.06;100399.44;5076210;27;45536;-40
2021/06/20 06:22:20;;;;;;;;;4.33;4.33;;;;;22.23;55.52;100405.06;5077829;27;47927;-40
2021/06/20 06:24:46;;;;;;;;;2.67;2.67;;;;;22.22;55.47;100404.19;5084547;27;45569;-40
2021/06/20 06:27:13;;;;;;;;;3.00;3.00;;;;;22.18;55.46;100401.84;5087782;27;45326;-43
2021/06/20 06:29:39;;;;;;;;;2.00;2.00;;;;;22.16;55.28;100396.56;5094742;27;45460;-43
2021/06/20 06:32:06;;;;;;;;;2.00;2.00;;;;;22.14;55.60;100397.66;5095810;27;47141;-42
2021/06/20 06:34:32;;;;;;;;;3.67;3.67;;;;;22.15;55.60;100396.69;5092258;27;46197;-44
2021/06/20 06:36:58;;;;;;;;;4.33;4.00;;;;;22.14;55.26;100393.13;5083564;27;45456;-42
2021/06/20 06:39:25;;;;;;;;;2.00;2.00;;;;;22.12;55.23;100388.81;5088601;27;45482;-42
2021/06/20 06:41:51;;;;;;;;;4.00;3.00;;;;;22.11;55.88;100390.66;5077868;27;47353;-41
2021/06/20 06:44:16;;;;;;;;;2.67;2.67;;;;;22.09;55.28;100383.63;5094959;27;45312;-41
2021/06/20 06:46:43;;;;;;;;;4.00;4.00;;;;;22.08;55.60;100380.06;5096255;27;45561;-41
2021/06/20 06:49:08;;;;;;;;;4.00;4.00;;;;;22.08;55.94;100388.16;5089730;27;45456;-42
2021/06/20 06:51:34;;;;;;;;;4.33;3.33;;;;;22.06;55.66;100400.94;5093390;27;47089;-43
2021/06/20 06:53:59;;;;;;;;;4.33;3.33;;;;;22.06;55.43;100390.13;5091120;27;45415;-43
2021/06/20 06:56:25;;;;;;;;;3.00;3.00;;;;;22.05;55.79;100388.34;5085057;27;45390;-41
2021/06/20 06:58:50;;;;;;;;;2.33;2.33;;;;;22.06;55.21;100392.81;5082117;27;45455;-42
2021/06/20 07:01:16;;;;;;;;;2.00;2.00;;;;;22.06;55.76;100397.34;5094517;27;47225;-42
2021/06/20 07:03:41;;;;;;;;;4.33;2.33;;;;;22.05;55.58;100401.88;5081175;27;45215;-43
2021/06/20 07:06:07;;;;;;;;;4.00;3.00;;;;;22.08;55.83;100403.50;5085950;27;45381;-41
2021/06/20 07:08:32;;;;;;;;;4.67;4.67;;;;;22.10;55.57;100404.25;5088469;27;45421;-40
2021/06/20 07:10:58;;;;;;;;;3.00;3.00;;;;;22.10;55.25;100407.81;5079282;27;47357;-45
2021/06/20 07:13:23;;;;;;;;;5.00;4.00;;;;;22.12;55.36;100418.53;5080287;27;45668;-42
2021/06/20 07:15:49;;;;;;;;;3.00;3.00;;;;;22.12;55.34;100410.44;5083568;27;45510;-42
2021/06/20 07:18:15;;;;;;;;;4.00;4.00;;;;;22.12;55.77;100405.03;5093063;27;45632;-43
2021/06/20 07:20:41;;;;;;;;;7.67;5.67;;;;;22.12;56.01;100405.88;5083556;27;47217;-42
2021/06/20 07:23:06;;;;;;;;;3.00;3.00;;;;;22.15;55.99;100413.75;5096029;27;45413;-43
2021/06/20 07:25:32;;;;;;;;;4.00;3.00;;;;;22.16;55.39;100411.91;5094834;27;45606;-44
2021/06/20 07:27:57;;;;;;;;;4.00;4.00;;;;;22.18;55.87;100416.22;5081984;27;45608;-45
2021/06/20 07:30:24;;;;;;;;;4.00;4.00;;;;;22.19;55.88;100417.94;5085211;27;48571;-43
2021/06/20 07:32:50;;;;;;;;;5.00;3.00;;;;;22.21;56.09;100407.03;5090530;27;45538;-44
2021/06/20 07:35:16;;;;;;;;;4.33;4.33;;;;;22.24;55.62;100414.91;5091867;27;45461;-43
2021/06/20 07:37:41;;;;;;;;;6.33;5.00;;;;;22.25;55.51;100420.22;5099833;27;45411;-44
2021/06/20 07:40:11;;;;;;;;;5.00;4.00;;;;;22.29;55.13;100426.25;5086482;27;47216;-43
2021/06/20 07:42:37;;;;;;;;;3.00;3.00;;;;;22.32;55.40;100418.75;5093978;27;45420;-42
2021/06/20 07:45:05;;;;;;;;;4.00;4.00;;;;;22.36;55.07;100426.63;5098104;27;45372;-42
2021/06/20 07:47:32;;;;;;;;;4.00;4.00;;;;;22.37;55.75;100429.25;5097171;27;45729;-41
2021/06/20 07:49:57;;;;;;;;;3.67;3.33;;;;;22.40;55.26;100415.47;5090390;27;47558;-42
2021/06/20 07:52:23;;;;;;;;;5.00;4.00;;;;;22.45;55.07;100407.88;5091711;27;45811;-43
2021/06/20 07:54:52;;;;;;;;;2.00;2.00;;;;;22.51;54.88;100406.56;5089354;27;45470;-43
2021/06/20 07:57:19;;;;;;;;;3.33;3.33;;;;;22.57;55.48;100406.94;5079923;27;45559;-42
2021/06/20 07:59:47;;;;;;;;;3.00;3.00;;;;;22.65;55.05;100403.66;5080414;27;46538;-44
2021/06/20 08:02:14;;;;;;;;;4.00;4.00;;;;;22.74;55.00;100397.56;5096345;27;45376;-45
2021/06/20 08:04:40;;;;;;;;;3.67;3.67;;;;;22.80;54.53;100393.50;5089819;27;45426;-43
2021/06/20 08:07:07;;;;;;;;;4.33;4.33;;;;;22.83;54.20;100388.72;5090638;27;45654;-42
2021/06/20 08:09:33;;;;;;;;;4.00;4.00;;;;;22.87;54.65;100387.53;5089242;27;47427;-43
2021/06/20 08:12:00;;;;;;;;;5.00;5.00;;;;;22.87;54.50;100387.53;5095593;27;45406;-45
2021/06/20 08:14:26;;;;;;;;;2.67;2.67;;;;;22.89;53.81;100384.69;5079888;27;45371;-42
2021/06/20 08:16:52;;;;;;;;;3.00;3.00;;;;;22.88;54.00;100386.53;5092594;27;45728;-45
2021/06/20 08:19:18;;;;;;;;;5.00;5.00;;;;;22.89;53.72;100379.28;5097266;27;47093;-41
2021/06/20 08:21:45;;;;;;;;;3.33;3.33;;;;;22.92;54.35;100394.41;5099983;27;45653;-43
2021/06/20 08:24:11;;;;;;;;;3.00;3.00;;;;;22.96;53.83;100387.78;5093234;27;45516;-41
2021/06/20 08:26:37;;;;;;;;;5.33;4.00;;;;;22.99;53.56;100382.97;5087905;27;45299;-43
2021/06/20 08:29:03;;;;;;;;;5.00;5.00;;;;;23.02;54.16;100380.03;5086223;27;47386;-44
2021/06/20 08:31:29;;;;;;;;;4.00;4.00;;;;;23.07;53.31;100374.25;5099855;27;45913;-45
2021/06/20 08:33:54;;;;;;;;;6.00;6.00;;;;;23.10;53.43;100374.00;5098563;27;45330;-44
2021/06/20 08:36:20;;;;;;;;;3.67;3.67;;;;;23.13;53.25;100388.19;5080093;27;45464;-44
2021/06/20 08:38:45;;;;;;;;;4.00;4.00;;;;;23.16;52.65;100377.09;5082963;27;48465;-47
2021/06/20 08:41:15;;;;;;;;;4.00;4.00;;;;;23.16;52.63;100376.25;5091464;27;45333;-42
2021/06/20 08:43:43;;;;;;;;;2.00;2.00;;;;;23.16;52.81;100376.25;5098948;27;45325;-43
2021/06/20 08:46:09;;;;;;;;;3.00;3.00;;;;;23.17;52.60;100384.25;5098354;27;45661;-43
2021/06/20 08:48:36;;;;;;;;;3.33;3.33;;;;;23.19;52.59;100393.09;5089726;27;48396;-43
2021/06/20 08:51:04;;;;;;;;;3.00;3.00;;;;;23.22;52.16;100391.13;5080005;27;45768;-43
2021/06/20 08:53:29;;;;;;;;;3.67;3.67;;;;;23.23;52.54;100388.28;5079705;27;45427;-43
2021/06/20 08:55:55;;;;;;;;;4.00;3.00;;;;;23.25;52.35;100388.16;5086285;27;45300;-45
2021/06/20 08:58:27;;;;;;;;;4.00;4.00;;;;;23.28;52.47;100385.25;5093484;27;46992;-45
2021/06/20 09:00:55;;;;;;;;;2.00;2.00;;;;;23.32;52.30;100379.44;5079740;27;45482;-44
2021/06/20 09:03:20;;;;;;;;;4.33;4.33;;;;;23.38;52.65;100372.69;5097256;27;45292;-43
2021/06/20 09:06:00;;;;;;;;;3.33;3.33;;;;;23.43;52.53;100368.63;5094413;27;45412;-43
2021/06/20 09:08:27;;;;;;;;;3.67;3.67;;;;;23.48;52.39;100355.53;5097536;27;47279;-44
2021/06/20 09:10:54;;;;;;;;;5.67;4.33;;;;;23.54;52.23;100348.78;5115363;27;46107;-43
2021/06/20 09:13:20;;;;;;;;;5.00;5.00;;;;;23.58;52.16;100342.16;5092685;27;45329;-44
2021/06/20 09:15:58;;;;;;;;;3.33;3.33;;;;;23.61;51.69;100328.34;5094427;27;45311;-43
2021/06/20 09:18:23;;;;;;;;;7.75;5.75;;;;;23.63;51.68;100317.38;5084087;27;45584;-46
2021/06/20 09:20:51;;;;;;;;;2.75;2.75;;;;;23.65;51.65;100319.00;5088527;27;45742;-43
2021/06/20 09:23:18;;;;;;;;;7.00;6.50;;;;;23.67;51.91;100319.72;5079201;27;45542;-45
2021/06/20 09:25:52;;;;;;;;;6.25;6.25;;;;;23.70;52.00;100319.47;5079844;27;45602;-45
2021/06/20 09:28:18;;;;;;;;;4.33;4.33;;;;;23.74;51.89;100310.09;5077764;27;47408;-44
2021/06/20 09:30:49;;;;;;;;;6.00;6.00;;;;;23.77;51.82;100303.59;5091792;27;45411;-46
2021/06/20 09:33:16;;;;;;;;;5.33;3.67;;;;;23.81;51.72;100298.75;5096517;27;45483;-45
2021/06/20 09:35:53;;;;;;;;;5.00;5.00;;;;;23.82;51.59;100293.22;5098475;27;45393;-48
2021/06/20 09:38:22;;;;;;;;;5.33;5.33;;;;;23.85;51.41;100290.22;5084205;27;47737;-50
2021/06/20 09:40:51;;;;;;;;;6.00;6.00;;;;;23.85;50.83;100287.53;5096439;27;45607;-48
2021/06/20 09:43:19;;;;;;;;;7.00;7.00;;;;;23.85;50.16;100297.50;5085551;27;45697;-46
2021/06/20 09:45:47;;;;;;;;;5.00;4.33;;;;;23.83;50.73;100296.78;5089724;27;45629;-46
2021/06/20 09:48:30;;;;;;;;;4.00;4.00;;;;;23.84;50.49;100306.63;5090164;27;46447;-44
2021/06/20 09:51:00;;;;;;;;;4.67;4.00;;;;;23.84;50.49;100312.03;5099147;27;45609;-44
2021/06/20 09:53:40;;;;;;;;;3.33;3.33;;;;;23.83;50.54;100310.31;5098960;27;45366;-44
2021/06/20 09:56:29;;;;;;;;;4.33;4.33;;;;;23.83;50.34;100305.78;5090085;27;45295;-45
2021/06/20 09:59:00;;;;;;;;;6.67;6.67;;;;;23.86;50.75;100291.94;5078598;27;48085;-42
2021/06/20 10:01:29;;;;;;;;;5.00;5.00;;;;;23.87;50.40;100300.94;5095957;27;45769;-46
2021/06/20 10:03:55;;;;;;;;;3.67;3.67;;;;;23.88;50.12;100302.66;5086314;27;45728;-44
2021/06/20 10:06:21;;;;;;;;;4.33;4.33;;;;;23.89;50.42;100297.13;5084759;27;45491;-46
2021/06/20 10:08:47;;;;;;;;;5.00;5.00;;;;;23.92;50.04;100307.72;5082803;27;47266;-42
2021/06/20 10:11:15;;;;;;;;;4.33;3.67;;;;;23.95;49.91;100306.59;5078480;27;45334;-44
2021/06/20 10:13:41;;;;;;;;;3.33;2.67;;;;;23.98;49.85;100315.31;5080799;27;45387;-50
2021/06/20 10:16:18;;;;;;;;;4.67;3.67;;;;;24.03;49.20;100307.69;5083382;27;45538;-44
2021/06/20 10:18:54;;;;;;;;;3.00;3.00;;;;;24.10;49.59;100299.88;5093852;27;48179;-43
2021/06/20 10:21:31;;;;;;;;;2.33;2.33;;;;;24.16;49.55;100291.22;5077619;27;45593;-41
2021/06/20 10:24:07;;;;;;;;;3.67;3.67;;;;;24.22;48.83;100290.69;5096443;27;45385;-43
2021/06/20 10:26:34;;;;;;;;;4.33;4.33;;;;;24.26;48.88;100285.84;5085316;27;45505;-42
2021/06/20 10:29:02;;;;;;;;;4.00;4.00;;;;;24.30;48.81;100277.38;5097614;27;48322;-41
2021/06/20 10:31:34;;;;;;;;;6.67;5.67;;;;;24.33;48.52;100279.81;5098323;27;45515;-42
2021/06/20 10:34:49;;;;;;;;;6.00;5.00;;;;;24.36;48.37;100262.44;5094599;27;45711;-43
2021/06/20 10:37:19;;;;;;;;;6.00;5.00;;;;;24.43;47.79;100260.91;5077602;27;45556;-45
2021/06/20 10:39:53;;;;;;;;;4.67;4.67;;;;;24.53;47.98;100267.25;5095272;27;47475;-44
2021/06/20 10:42:19;;;;;;;;;4.33;4.33;;;;;24.64;48.36;100255.44;5088201;27;45871;-44
2021/06/20 10:44:53;;;;;;;;;3.67;3.67;;;;;24.77;48.49;100250.66;5087496;27;45463;-46
2021/06/20 10:47:35;;;;;;;;;5.33;3.00;;;;;24.89;48.02;100227.84;5083019;27;45506;-45
2021/06/20 10:50:06;;;;;;;;;6.00;6.00;;;;;24.92;47.38;100213.19;5077776;27;49035;-44
2021/06/20 10:52:33;;;;;;;;;6.67;5.33;;;;;24.95;47.76;100200.19;5077491;27;46359;-44
2021/06/20 10:55:06;;;;;;;;;3.00;3.00;;;;;25.01;46.50;100196.06;5085942;27;45705;-43
2021/06/20 10:57:31;;;;;;;;;2.67;2.33;;;;;25.10;46.70;100183.53;5083390;27;45449;-43
2021/06/20 10:59:58;;;;;;;;;4.00;3.67;;;;;25.19;47.00;100182.72;5096596;27;46543;-42
2021/06/20 11:02:31;;;;;;;;;3.67;3.67;;;;;25.28;46.14;100180.97;5099844;27;45505;-46
2021/06/20 11:04:56;;;;;;;;;6.00;4.67;;;;;25.35;45.72;100180.28;5087346;27;45501;-42
2021/06/20 11:07:24;;;;;;;;;4.67;3.33;;;;;25.45;46.24;100189.31;5082535;27;45413;-41
2021/06/20 11:09:49;;;;;;;;;3.33;3.33;;;;;25.52;45.90;100200.47;5097838;27;47698;-43
2021/06/20 11:12:15;;;;;;;;;4.00;4.00;;;;;25.58;46.53;100189.03;5092851;27;45366;-43
2021/06/20 11:14:43;;;;;;;;;4.25;4.25;;;;;25.62;45.63;100165.16;5085070;27;45226;-45
2021/06/20 11:17:09;;;;;;;;;3.67;3.67;;;;;25.66;45.58;100139.41;5084564;27;45599;-43
2021/06/20 11:19:36;;;;;;;;;3.67;3.67;;;;;25.71;45.93;100129.00;5094617;27;45406;-42
2021/06/20 11:22:04;;;;;;;;;4.00;3.00;;;;;25.84;45.40;100135.00;5093988;27;45406;-46
2021/06/20 11:24:37;;;;;;;;;4.33;4.33;;;;;26.00;45.47;100137.97;5097505;27;45355;-50